sensor_id;sensor_type;location;lat;lon;timestamp;pressure;altitude;pressure_sealevel;temperature;humidity
4586;BME280;2305;50.118;8.952;2023-03-26T00:01:31;99924.66;;;9.81;100.00
4586;BME280;2305;50.118;8.952;2023-03-26T00:04:05;99931.75;;;9.81;100.00
4586;BME280;2305;50.118;8.952;2023-03-26T00:06:35;99925.47;;;9.72;100.00
4586;BME280;2305;50.118;8.952;2023-03-26T00:09:07;99925.69;;;9.69;100.00
4586;BME280;2305;50.118;8.952;2023-03-26T00:11:35;99917.22;;;9.66;100.00
4586;BME280;2305;50.118;8.952;2023-03-26T00:14:03;99935.28;;;9.70;100.00
4586;BME280;2305;50.118;8.952;2023-03-26T00:16:32;99925.13;;;9.86;100.00
4586;BME280;2305;50.118;8.952;2023-03-26T00:19:01;99934.03;;;9.74;100.00
4586;BME280;2305;50.118;8.952;2023-03-26T00:21:32;99936.63;;;9.85;100.00
4586;BME280;2305;50.118;8.952;2023-03-26T00:24:02;99931.16;;;9.77;100.00
4586;BME280;2305;50.118;8.952;2023-03-26T00:26:33;99931.09;;;9.68;100.00
4586;BME280;2305;50.118;8.952;2023-03-26T00:29:06;99930.59;;;9.74;100.00
4586;BME280;2305;50.118;8.952;2023-03-26T00:31:36;99922.94;;;9.71;100.00
4586;BME280;2305;50.118;8.952;2023-03-26T00:34:05;99932.88;;;9.67;100.00
4586;BME280;2305;50.118;8.952;2023-03-26T00:36:37;99932.84;;;9.78;100.00
4586;BME280;2305;50.118;8.952;2023-03-26T00:39:10;99928.00;;;9.83;100.00
4586;BME280;2305;50.118;8.952;2023-03-26T00:41:40;99929.63;;;9.75;100.00
4586;BME280;2305;50.118;8.952;2023-03-26T00:44:10;99928.66;;;9.76;100.00
4586;BME280;2305;50.118;8.952;2023-03-26T00:46:38;99930.59;;;9.74;100.00
4586;BME280;2305;50.118;8.952;2023-03-26T00:49:06;99933.16;;;9.64;100.00
4586;BME280;2305;50.118;8.952;2023-03-26T00:51:38;99919.50;;;9.70;100.00
4586;BME280;2305;50.118;8.952;2023-03-26T00:54:09;99926.53;;;9.70;100.00
4586;BME280;2305;50.118;8.952;2023-03-26T00:56:38;99921.38;;;9.59;100.00
4586;BME280;2305;50.118;8.952;2023-03-26T00:59:07;99927.56;;;9.58;100.00
4586;BME280;2305;50.118;8.952;2023-03-26T01:01:40;99928.34;;;9.49;100.00
4586;BME280;2305;50.118;8.952;2023-03-26T01:04:24;99919.63;;;9.48;100.00
4586;BME280;2305;50.118;8.952;2023-03-26T01:06:58;99921.88;;;9.53;100.00
4586;BME280;2305;50.118;8.952;2023-03-26T01:09:33;99908.38;;;9.46;100.00
4586;BME280;2305;50.118;8.952;2023-03-26T01:12:07;99905.63;;;9.48;100.00
4586;BME280;2305;50.118;8.952;2023-03-26T01:14:37;99902.09;;;9.58;100.00
4586;BME280;2305;50.118;8.952;2023-03-26T01:17:07;99908.00;;;9.51;100.00
4586;BME280;2305;50.118;8.952;2023-03-26T01:19:43;99900.69;;;9.54;100.00
4586;BME280;2305;50.118;8.952;2023-03-26T01:22:15;99900.25;;;9.49;100.00
4586;BME280;2305;50.118;8.952;2023-03-26T01:24:46;99896.72;;;9.39;100.00
4586;BME280;2305;50.118;8.952;2023-03-26T01:27:30;99893.66;;;9.34;100.00
4586;BME280;2305;50.118;8.952;2023-03-26T01:30:06;99892.94;;;9.32;100.00
4586;BME280;2305;50.118;8.952;2023-03-26T01:32:53;99891.22;;;9.42;100.00
4586;BME280;2305;50.118;8.952;2023-03-26T01:35:33;99886.47;;;9.36;100.00
4586;BME280;2305;50.118;8.952;2023-03-26T01:38:19;99888.00;;;9.39;100.00
4586;BME280;2305;50.118;8.952;2023-03-26T01:40:57;99891.22;;;9.42;100.00
4586;BME280;2305;50.118;8.952;2023-03-26T01:43:30;99884.91;;;9.34;100.00
4586;BME280;2305;50.118;8.952;2023-03-26T01:46:04;99883.00;;;9.36;100.00
4586;BME280;2305;50.118;8.952;2023-03-26T01:48:35;99878.88;;;9.43;100.00
4586;BME280;2305;50.118;8.952;2023-03-26T01:51:06;99870.22;;;9.31;100.00
4586;BME280;2305;50.118;8.952;2023-03-26T01:53:37;99863.69;;;9.26;100.00
4586;BME280;2305;50.118;8.952;2023-03-26T01:56:14;99862.03;;;9.25;100.00
4586;BME280;2305;50.118;8.952;2023-03-26T01:58:54;99852.53;;;9.13;100.00
4586;BME280;2305;50.118;8.952;2023-03-26T02:01:31;99849.97;;;9.22;100.00
4586;BME280;2305;50.118;8.952;2023-03-26T02:04:09;99843.56;;;9.15;100.00
4586;BME280;2305;50.118;8.952;2023-03-26T02:06:45;99846.59;;;9.11;100.00
4586;BME280;2305;50.118;8.952;2023-03-26T02:09:18;99846.97;;;9.06;100.00
4586;BME280;2305;50.118;8.952;2023-03-26T02:11:49;99845.53;;;9.23;100.00
4586;BME280;2305;50.118;8.952;2023-03-26T02:14:18;99840.81;;;9.17;100.00
4586;BME280;2305;50.118;8.952;2023-03-26T02:16:46;99837.22;;;9.18;100.00
4586;BME280;2305;50.118;8.952;2023-03-26T02:19:16;99836.38;;;9.17;100.00
4586;BME280;2305;50.118;8.952;2023-03-26T02:21:48;99830.31;;;9.17;100.00
4586;BME280;2305;50.118;8.952;2023-03-26T02:24:19;99824.91;;;9.18;100.00
4586;BME280;2305;50.118;8.952;2023-03-26T02:26:54;99812.72;;;9.17;100.00
4586;BME280;2305;50.118;8.952;2023-03-26T02:29:26;99806.50;;;9.18;100.00
4586;BME280;2305;50.118;8.952;2023-03-26T02:31:54;99800.81;;;9.13;100.00
4586;BME280;2305;50.118;8.952;2023-03-26T02:34:22;99804.53;;;9.11;100.00
4586;BME280;2305;50.118;8.952;2023-03-26T02:36:55;99791.31;;;9.22;100.00
4586;BME280;2305;50.118;8.952;2023-03-26T02:39:25;99790.56;;;9.31;100.00
4586;BME280;2305;50.118;8.952;2023-03-26T02:41:58;99787.97;;;9.20;100.00
4586;BME280;2305;50.118;8.952;2023-03-26T02:44:28;99776.97;;;9.26;100.00
4586;BME280;2305;50.118;8.952;2023-03-26T02:46:57;99775.94;;;9.17;100.00
4586;BME280;2305;50.118;8.952;2023-03-26T02:49:43;99773.81;;;9.11;100.00
4586;BME280;2305;50.118;8.952;2023-03-26T02:52:18;99769.78;;;9.07;100.00
4586;BME280;2305;50.118;8.952;2023-03-26T02:54:48;99769.53;;;9.10;100.00
4586;BME280;2305;50.118;8.952;2023-03-26T02:57:20;99768.88;;;9.18;100.00
4586;BME280;2305;50.118;8.952;2023-03-26T03:00:00;99762.66;;;9.19;100.00
4586;BME280;2305;50.118;8.952;2023-03-26T03:02:39;99760.03;;;9.19;100.00
4586;BME280;2305;50.118;8.952;2023-03-26T03:05:31;99763.13;;;9.24;100.00
4586;BME280;2305;50.118;8.952;2023-03-26T03:08:19;99773.06;;;9.20;100.00
4586;BME280;2305;50.118;8.952;2023-03-26T03:11:08;99765.00;;;9.42;100.00
4586;BME280;2305;50.118;8.952;2023-03-26T03:13:42;99760.38;;;9.35;100.00
4586;BME280;2305;50.118;8.952;2023-03-26T03:16:14;99756.59;;;9.48;100.00
4586;BME280;2305;50.118;8.952;2023-03-26T03:18:43;99757.88;;;9.33;100.00
4586;BME280;2305;50.118;8.952;2023-03-26T03:21:12;99751.13;;;9.31;100.00
4586;BME280;2305;50.118;8.952;2023-03-26T03:23:41;99752.94;;;9.40;100.00
4586;BME280;2305;50.118;8.952;2023-03-26T03:26:15;99748.22;;;9.34;100.00
4586;BME280;2305;50.118;8.952;2023-03-26T03:28:52;99750.44;;;9.38;100.00
4586;BME280;2305;50.118;8.952;2023-03-26T03:31:22;99750.56;;;9.37;100.00
4586;BME280;2305;50.118;8.952;2023-03-26T03:33:54;99748.44;;;9.51;100.00
4586;BME280;2305;50.118;8.952;2023-03-26T03:36:23;99739.97;;;9.48;100.00
4586;BME280;2305;50.118;8.952;2023-03-26T03:39:04;99736.50;;;9.47;100.00
4586;BME280;2305;50.118;8.952;2023-03-26T03:41:33;99738.56;;;9.44;100.00
4586;BME280;2305;50.118;8.952;2023-03-26T03:44:07;99734.94;;;9.35;100.00
4586;BME280;2305;50.118;8.952;2023-03-26T03:46:35;99724.28;;;9.37;100.00
4586;BME280;2305;50.118;8.952;2023-03-26T03:49:03;99734.59;;;9.49;100.00
4586;BME280;2305;50.118;8.952;2023-03-26T03:51:35;99724.72;;;9.42;100.00
4586;BME280;2305;50.118;8.952;2023-03-26T03:54:10;99724.03;;;9.40;100.00
4586;BME280;2305;50.118;8.952;2023-03-26T03:56:58;99711.53;;;9.32;100.00
4586;BME280;2305;50.118;8.952;2023-03-26T03:59:43;99705.72;;;9.29;100.00
4586;BME280;2305;50.118;8.952;2023-03-26T04:02:15;99712.38;;;9.33;100.00
4586;BME280;2305;50.118;8.952;2023-03-26T04:04:57;99710.72;;;9.32;100.00
4586;BME280;2305;50.118;8.952;2023-03-26T04:07:28;99700.06;;;9.33;100.00
4586;BME280;2305;50.118;8.952;2023-03-26T04:10:04;99704.78;;;9.39;100.00
4586;BME280;2305;50.118;8.952;2023-03-26T04:12:51;99705.91;;;9.46;100.00
4586;BME280;2305;50.118;8.952;2023-03-26T04:15:33;99693.75;;;9.45;100.00
4586;BME280;2305;50.118;8.952;2023-03-26T04:18:02;99693.16;;;9.42;100.00
4586;BME280;2305;50.118;8.952;2023-03-26T04:20:43;99694.03;;;9.42;100.00
4586;BME280;2305;50.118;8.952;2023-03-26T04:23:19;99684.34;;;9.52;100.00
4586;BME280;2305;50.118;8.952;2023-03-26T04:25:55;99682.13;;;9.48;100.00
4586;BME280;2305;50.118;8.952;2023-03-26T04:28:41;99675.91;;;9.49;100.00
4586;BME280;2305;50.118;8.952;2023-03-26T04:31:34;99674.13;;;9.49;100.00
4586;BME280;2305;50.118;8.952;2023-03-26T04:34:07;99671.31;;;9.51;100.00
4586;BME280;2305;50.118;8.952;2023-03-26T04:36:52;99669.41;;;9.53;100.00
4586;BME280;2305;50.118;8.952;2023-03-26T04:39:27;99670.22;;;9.53;100.00
4586;BME280;2305;50.118;8.952;2023-03-26T04:42:15;99666.41;;;9.76;100.00
4586;BME280;2305;50.118;8.952;2023-03-26T04:45:07;99661.72;;;9.70;100.00
4586;BME280;2305;50.118;8.952;2023-03-26T04:47:42;99649.38;;;9.71;100.00
4586;BME280;2305;50.118;8.952;2023-03-26T04:50:13;99641.22;;;9.74;100.00
4586;BME280;2305;50.118;8.952;2023-03-26T04:52:42;99632.06;;;9.68;100.00
4586;BME280;2305;50.118;8.952;2023-03-26T04:55:33;99617.94;;;9.69;100.00
4586;BME280;2305;50.118;8.952;2023-03-26T04:58:14;99616.84;;;9.72;100.00
4586;BME280;2305;50.118;8.952;2023-03-26T05:00:51;99619.88;;;9.67;100.00
4586;BME280;2305;50.118;8.952;2023-03-26T05:03:28;99627.09;;;9.65;100.00
4586;BME280;2305;50.118;8.952;2023-03-26T05:06:02;99633.31;;;9.64;100.00
4586;BME280;2305;50.118;8.952;2023-03-26T05:08:30;99617.09;;;9.59;100.00
4586;BME280;2305;50.118;8.952;2023-03-26T05:10:59;99612.94;;;9.57;100.00
4586;BME280;2305;50.118;8.952;2023-03-26T05:13:33;99613.78;;;9.57;100.00
4586;BME280;2305;50.118;8.952;2023-03-26T05:16:09;99607.13;;;9.53;100.00
4586;BME280;2305;50.118;8.952;2023-03-26T05:18:48;99596.75;;;9.52;100.00
4586;BME280;2305;50.118;8.952;2023-03-26T05:21:17;99593.97;;;9.53;100.00
4586;BME280;2305;50.118;8.952;2023-03-26T05:23:45;99593.97;;;9.53;100.00
4586;BME280;2305;50.118;8.952;2023-03-26T05:26:18;99580.44;;;9.48;100.00
4586;BME280;2305;50.118;8.952;2023-03-26T05:28:49;99579.16;;;9.43;100.00
4586;BME280;2305;50.118;8.952;2023-03-26T05:31:22;99578.59;;;9.39;100.00
4586;BME280;2305;50.118;8.952;2023-03-26T05:33:56;99568.78;;;9.41;100.00
4586;BME280;2305;50.118;8.952;2023-03-26T05:36:26;99571.81;;;9.46;100.00
4586;BME280;2305;50.118;8.952;2023-03-26T05:39:16;99557.69;;;9.47;100.00
4586;BME280;2305;50.118;8.952;2023-03-26T05:42:03;99550.38;;;9.51;100.00
4586;BME280;2305;50.118;8.952;2023-03-26T05:45:09;99545.66;;;9.54;100.00
4586;BME280;2305;50.118;8.952;2023-03-26T05:47:40;99536.84;;;9.55;100.00
4586;BME280;2305;50.118;8.952;2023-03-26T05:50:10;99538.34;;;9.58;100.00
4586;BME280;2305;50.118;8.952;2023-03-26T05:52:41;99534.59;;;9.60;100.00
4586;BME280;2305;50.118;8.952;2023-03-26T05:55:25;99532.66;;;9.62;100.00
4586;BME280;2305;50.118;8.952;2023-03-26T05:58:13;99525.19;;;9.67;100.00
4586;BME280;2305;50.118;8.952;2023-03-26T06:01:20;99533.75;;;9.69;100.00
4586;BME280;2305;50.118;8.952;2023-03-26T06:04:17;99524.38;;;9.67;100.00
4586;BME280;2305;50.118;8.952;2023-03-26T06:07:07;99523.81;;;9.63;100.00
4586;BME280;2305;50.118;8.952;2023-03-26T06:09:36;99515.50;;;9.58;100.00
4586;BME280;2305;50.118;8.952;2023-03-26T06:12:09;99516.88;;;9.62;100.00
4586;BME280;2305;50.118;8.952;2023-03-26T06:14:39;99507.19;;;9.63;100.00
4586;BME280;2305;50.118;8.952;2023-03-26T06:17:16;99511.34;;;9.65;100.00
4586;BME280;2305;50.118;8.952;2023-03-26T06:20:01;99508.72;;;9.65;100.00
4586;BME280;2305;50.118;8.952;2023-03-26T06:22:39;99516.31;;;9.68;100.00
4586;BME280;2305;50.118;8.952;2023-03-26T06:25:16;99508.31;;;9.70;100.00
4586;BME280;2305;50.118;8.952;2023-03-26T06:28:08;99505.25;;;9.65;100.00
4586;BME280;2305;50.118;8.952;2023-03-26T06:30:58;99497.53;;;9.54;100.00
4586;BME280;2305;50.118;8.952;2023-03-26T06:33:49;99495.88;;;9.53;100.00
4586;BME280;2305;50.118;8.952;2023-03-26T06:36:19;99481.19;;;9.50;100.00
4586;BME280;2305;50.118;8.952;2023-03-26T06:38:50;99477.16;;;9.56;100.00
4586;BME280;2305;50.118;8.952;2023-03-26T06:41:21;99473.72;;;9.55;100.00
4586;BME280;2305;50.118;8.952;2023-03-26T06:44:07;99476.91;;;9.59;100.00
4586;BME280;2305;50.118;8.952;2023-03-26T06:46:58;99462.91;;;9.58;100.00
4586;BME280;2305;50.118;8.952;2023-03-26T06:49:47;99451.56;;;9.67;100.00
4586;BME280;2305;50.118;8.952;2023-03-26T06:52:33;99447.25;;;9.66;100.00
4586;BME280;2305;50.118;8.952;2023-03-26T06:55:28;99449.47;;;9.71;100.00
4586;BME280;2305;50.118;8.952;2023-03-26T06:58:10;99438.09;;;9.80;100.00
4586;BME280;2305;50.118;8.952;2023-03-26T07:00:58;99439.59;;;9.92;100.00
4586;BME280;2305;50.118;8.952;2023-03-26T07:03:44;99429.47;;;9.97;100.00
4586;BME280;2305;50.118;8.952;2023-03-26T07:06:31;99437.38;;;10.06;100.00
4586;BME280;2305;50.118;8.952;2023-03-26T07:09:19;99438.59;;;10.02;100.00
4586;BME280;2305;50.118;8.952;2023-03-26T07:12:08;99433.22;;;10.04;100.00
4586;BME280;2305;50.118;8.952;2023-03-26T07:14:58;99434.44;;;10.09;100.00
4586;BME280;2305;50.118;8.952;2023-03-26T07:17:53;99430.84;;;10.10;100.00
4586;BME280;2305;50.118;8.952;2023-03-26T07:20:27;99429.63;;;10.05;100.00
4586;BME280;2305;50.118;8.952;2023-03-26T07:22:56;99419.50;;;10.10;100.00
4586;BME280;2305;50.118;8.952;2023-03-26T07:25:47;99424.91;;;10.08;100.00
4586;BME280;2305;50.118;8.952;2023-03-26T07:28:22;99428.63;;;9.96;100.00
4586;BME280;2305;50.118;8.952;2023-03-26T07:31:18;99421.72;;;10.05;100.00
4586;BME280;2305;50.118;8.952;2023-03-26T07:34:39;99420.31;;;10.01;100.00
4586;BME280;2305;50.118;8.952;2023-03-26T07:37:32;99412.59;;;9.99;100.00
4586;BME280;2305;50.118;8.952;2023-03-26T07:40:22;99409.97;;;9.90;100.00
4586;BME280;2305;50.118;8.952;2023-03-26T07:43:23;99410.50;;;9.93;100.00
4586;BME280;2305;50.118;8.952;2023-03-26T07:46:16;99407.47;;;10.07;100.00
4586;BME280;2305;50.118;8.952;2023-03-26T07:48:54;99402.47;;;10.04;100.00
4586;BME280;2305;50.118;8.952;2023-03-26T07:51:34;99404.28;;;10.04;100.00
4586;BME280;2305;50.118;8.952;2023-03-26T07:54:09;99404.41;;;9.93;100.00
4586;BME280;2305;50.118;8.952;2023-03-26T07:57:17;99400.25;;;9.90;100.00
4586;BME280;2305;50.118;8.952;2023-03-26T08:00:00;99394.44;;;9.96;100.00
4586;BME280;2305;50.118;8.952;2023-03-26T08:03:09;99400.81;;;9.94;100.00
4586;BME280;2305;50.118;8.952;2023-03-26T08:06:10;99390.88;;;9.88;100.00
4586;BME280;2305;50.118;8.952;2023-03-26T08:08:59;99380.06;;;9.91;100.00
4586;BME280;2305;50.118;8.952;2023-03-26T08:11:58;99370.94;;;9.85;100.00
4586;BME280;2305;50.118;8.952;2023-03-26T08:14:40;99375.38;;;9.75;100.00
4586;BME280;2305;50.118;8.952;2023-03-26T08:17:16;99364.72;;;9.77;100.00
4586;BME280;2305;50.118;8.952;2023-03-26T08:20:00;99358.22;;;9.81;100.00
4586;BME280;2305;50.118;8.952;2023-03-26T08:22:35;99356.72;;;9.78;100.00
4586;BME280;2305;50.118;8.952;2023-03-26T08:25:17;99358.38;;;9.79;100.00
4586;BME280;2305;50.118;8.952;2023-03-26T08:27:53;99358.50;;;9.78;100.00
4586;BME280;2305;50.118;8.952;2023-03-26T08:30:27;99356.69;;;9.88;100.00
4586;BME280;2305;50.118;8.952;2023-03-26T08:33:02;99360.13;;;9.88;100.00
4586;BME280;2305;50.118;8.952;2023-03-26T08:35:37;99354.31;;;9.85;100.00
4586;BME280;2305;50.118;8.952;2023-03-26T08:38:08;99353.78;;;9.81;100.00
4586;BME280;2305;50.118;8.952;2023-03-26T08:40:53;99358.78;;;9.84;100.00
4586;BME280;2305;50.118;8.952;2023-03-26T08:55:51;99349.31;;;9.91;100.00
4586;BME280;2305;50.118;8.952;2023-03-26T08:59:07;99358.16;;;9.90;100.00
4586;BME280;2305;50.118;8.952;2023-03-26T09:02:09;99357.78;;;9.85;100.00
4586;BME280;2305;50.118;8.952;2023-03-26T09:05:03;99352.22;;;9.88;100.00
4586;BME280;2305;50.118;8.952;2023-03-26T09:14:16;99346.84;;;9.90;100.00
4586;BME280;2305;50.118;8.952;2023-03-26T09:20:06;99348.16;;;9.67;100.00
4586;BME280;2305;50.118;8.952;2023-03-26T09:22:57;99340.81;;;9.70;100.00
4586;BME280;2305;50.118;8.952;2023-03-26T09:35:12;99330.84;;;9.74;100.00
4586;BME280;2305;50.118;8.952;2023-03-26T09:37:56;99334.13;;;9.85;100.00
4586;BME280;2305;50.118;8.952;2023-03-26T09:40:35;99324.84;;;9.81;100.00
4586;BME280;2305;50.118;8.952;2023-03-26T09:43:26;99320.84;;;9.77;100.00
4586;BME280;2305;50.118;8.952;2023-03-26T09:46:13;99326.31;;;9.93;100.00
4586;BME280;2305;50.118;8.952;2023-03-26T09:48:58;99310.22;;;9.96;100.00
4586;BME280;2305;50.118;8.952;2023-03-26T09:51:45;99296.31;;;9.86;100.00
4586;BME280;2305;50.118;8.952;2023-03-26T09:54:40;99300.28;;;9.90;100.00
4586;BME280;2305;50.118;8.952;2023-03-26T09:57:27;99293.28;;;9.81;100.00
4586;BME280;2305;50.118;8.952;2023-03-26T10:00:12;99293.75;;;9.67;100.00
4586;BME280;2305;50.118;8.952;2023-03-26T10:03:21;99279.72;;;9.76;100.00
4586;BME280;2305;50.118;8.952;2023-03-26T10:06:12;99278.47;;;9.80;100.00
4586;BME280;2305;50.118;8.952;2023-03-26T10:08:55;99280.13;;;9.81;100.00
4586;BME280;2305;50.118;8.952;2023-03-26T10:11:36;99281.63;;;9.84;100.00
4586;BME280;2305;50.118;8.952;2023-03-26T10:14:18;99288.84;;;9.82;100.00
4586;BME280;2305;50.118;8.952;2023-03-26T10:16:58;99287.75;;;9.84;100.00
4586;BME280;2305;50.118;8.952;2023-03-26T10:19:44;99286.72;;;9.95;100.00
4586;BME280;2305;50.118;8.952;2023-03-26T10:22:34;99276.41;;;10.01;100.00
4586;BME280;2305;50.118;8.952;2023-03-26T10:28:11;99271.91;;;10.21;100.00
4586;BME280;2305;50.118;8.952;2023-03-26T10:31:06;99270.56;;;10.17;100.00
4586;BME280;2305;50.118;8.952;2023-03-26T10:33:48;99278.91;;;10.12;100.00
4586;BME280;2305;50.118;8.952;2023-03-26T10:36:27;99265.28;;;10.17;100.00
4586;BME280;2305;50.118;8.952;2023-03-26T10:39:07;99267.63;;;10.20;100.00
4586;BME280;2305;50.118;8.952;2023-03-26T10:42:17;99259.28;;;10.42;100.00
4586;BME280;2305;50.118;8.952;2023-03-26T10:45:11;99254.31;;;10.39;100.00
4586;BME280;2305;50.118;8.952;2023-03-26T10:47:54;99249.88;;;10.57;100.00
4586;BME280;2305;50.118;8.952;2023-03-26T10:50:34;99240.84;;;10.59;100.00
4586;BME280;2305;50.118;8.952;2023-03-26T10:53:12;99240.19;;;11.00;100.00
4586;BME280;2305;50.118;8.952;2023-03-26T10:55:52;99246.47;;;11.25;100.00
4586;BME280;2305;50.118;8.952;2023-03-26T10:58:24;99245.13;;;11.54;100.00
4586;BME280;2305;50.118;8.952;2023-03-26T11:00:59;99230.16;;;11.29;100.00
4586;BME280;2305;50.118;8.952;2023-03-26T11:03:46;99232.63;;;11.56;100.00
4586;BME280;2305;50.118;8.952;2023-03-26T11:06:26;99229.69;;;11.59;100.00
4586;BME280;2305;50.118;8.952;2023-03-26T11:09:06;99222.34;;;11.79;100.00
4586;BME280;2305;50.118;8.952;2023-03-26T11:11:44;99216.16;;;12.04;100.00
4586;BME280;2305;50.118;8.952;2023-03-26T11:14:20;99208.44;;;12.18;100.00
4586;BME280;2305;50.118;8.952;2023-03-26T11:17:09;99207.78;;;12.16;100.00
4586;BME280;2305;50.118;8.952;2023-03-26T11:20:05;99209.97;;;12.45;100.00
4586;BME280;2305;50.118;8.952;2023-03-26T11:22:45;99191.63;;;12.43;100.00
4586;BME280;2305;50.118;8.952;2023-03-26T11:25:26;99189.50;;;12.55;100.00
4586;BME280;2305;50.118;8.952;2023-03-26T11:28:07;99189.19;;;12.66;100.00
4586;BME280;2305;50.118;8.952;2023-03-26T11:30:45;99173.47;;;12.56;100.00
4586;BME280;2305;50.118;8.952;2023-03-26T11:33:19;99170.34;;;12.69;100.00
4586;BME280;2305;50.118;8.952;2023-03-26T11:35:50;99166.03;;;12.76;100.00
4586;BME280;2305;50.118;8.952;2023-03-26T11:38:24;99173.31;;;12.50;100.00
4586;BME280;2305;50.118;8.952;2023-03-26T11:40:55;99176.13;;;12.40;100.00
4586;BME280;2305;50.118;8.952;2023-03-26T11:43:58;99178.41;;;12.11;100.00
4586;BME280;2305;50.118;8.952;2023-03-26T11:46:29;99188.13;;;12.03;100.00
4586;BME280;2305;50.118;8.952;2023-03-26T11:49:04;99173.53;;;11.75;100.00
4586;BME280;2305;50.118;8.952;2023-03-26T11:51:39;99169.53;;;11.63;100.00
4586;BME280;2305;50.118;8.952;2023-03-26T11:54:10;99171.94;;;11.56;100.00
4586;BME280;2305;50.118;8.952;2023-03-26T11:56:43;99175.41;;;11.57;100.00
4586;BME280;2305;50.118;8.952;2023-03-26T11:59:36;99173.06;;;11.46;100.00
4586;BME280;2305;50.118;8.952;2023-03-26T12:02:27;99174.28;;;11.59;100.00
4586;BME280;2305;50.118;8.952;2023-03-26T12:05:20;99163.97;;;11.74;100.00
4586;BME280;2305;50.118;8.952;2023-03-26T12:07:55;99162.66;;;11.86;100.00
4586;BME280;2305;50.118;8.952;2023-03-26T12:10:28;99164.22;;;12.12;100.00
4586;BME280;2305;50.118;8.952;2023-03-26T12:13:00;99147.56;;;12.60;100.00
4586;BME280;2305;50.118;8.952;2023-03-26T12:15:30;99135.88;;;13.25;100.00
4586;BME280;2305;50.118;8.952;2023-03-26T12:18:18;99129.75;;;13.93;100.00
4586;BME280;2305;50.118;8.952;2023-03-26T12:21:01;99127.81;;;14.09;100.00
4586;BME280;2305;50.118;8.952;2023-03-26T12:23:36;99118.84;;;13.66;100.00
4586;BME280;2305;50.118;8.952;2023-03-26T12:26:16;99124.28;;;13.64;100.00
4586;BME280;2305;50.118;8.952;2023-03-26T12:28:48;99133.06;;;13.26;100.00
4586;BME280;2305;50.118;8.952;2023-03-26T12:31:18;99149.66;;;12.88;100.00
4586;BME280;2305;50.118;8.952;2023-03-26T12:34:05;99146.38;;;12.78;100.00
4586;BME280;2305;50.118;8.952;2023-03-26T12:36:37;99158.44;;;12.33;100.00
4586;BME280;2305;50.118;8.952;2023-03-26T12:39:25;99162.38;;;12.05;100.00
4586;BME280;2305;50.118;8.952;2023-03-26T12:42:26;99158.88;;;11.47;100.00
4586;BME280;2305;50.118;8.952;2023-03-26T12:45:15;99157.03;;;11.39;100.00
4586;BME280;2305;50.118;8.952;2023-03-26T12:47:44;99162.75;;;11.60;100.00
4586;BME280;2305;50.118;8.952;2023-03-26T12:50:44;99153.47;;;11.48;100.00
4586;BME280;2305;50.118;8.952;2023-03-26T12:53:27;99145.28;;;11.67;100.00
4586;BME280;2305;50.118;8.952;2023-03-26T12:56:00;99147.16;;;11.91;100.00
4586;BME280;2305;50.118;8.952;2023-03-26T12:59:00;99141.28;;;12.45;100.00
4586;BME280;2305;50.118;8.952;2023-03-26T13:01:39;99134.97;;;12.70;100.00
4586;BME280;2305;50.118;8.952;2023-03-26T13:04:29;99127.41;;;12.59;100.00
4586;BME280;2305;50.118;8.952;2023-03-26T13:07:11;99128.88;;;12.69;100.00
4586;BME280;2305;50.118;8.952;2023-03-26T13:09:58;99121.72;;;13.10;100.00
4586;BME280;2305;50.118;8.952;2023-03-26T13:12:34;99105.06;;;13.70;100.00
4586;BME280;2305;50.118;8.952;2023-03-26T13:15:21;99107.38;;;14.26;100.00
4586;BME280;2305;50.118;8.952;2023-03-26T13:18:00;99094.50;;;14.60;100.00
4586;BME280;2305;50.118;8.952;2023-03-26T13:20:52;99079.88;;;15.07;100.00
4586;BME280;2305;50.118;8.952;2023-03-26T13:23:32;99077.94;;;15.30;100.00
4586;BME280;2305;50.118;8.952;2023-03-26T13:26:32;99067.91;;;15.61;100.00
4586;BME280;2305;50.118;8.952;2023-03-26T13:29:09;99071.25;;;15.84;100.00
4586;BME280;2305;50.118;8.952;2023-03-26T13:31:48;99065.69;;;16.00;100.00
4586;BME280;2305;50.118;8.952;2023-03-26T13:34:30;99076.38;;;16.07;100.00
4586;BME280;2305;50.118;8.952;2023-03-26T13:37:07;99065.81;;;15.57;100.00
4586;BME280;2305;50.118;8.952;2023-03-26T13:39:48;99067.31;;;15.45;100.00
4586;BME280;2305;50.118;8.952;2023-03-26T13:42:36;99063.81;;;15.30;100.00
4586;BME280;2305;50.118;8.952;2023-03-26T13:45:13;99060.38;;;14.86;100.00
4586;BME280;2305;50.118;8.952;2023-03-26T13:47:53;99067.13;;;14.59;100.00
4586;BME280;2305;50.118;8.952;2023-03-26T13:50:26;99069.66;;;14.16;100.00
4586;BME280;2305;50.118;8.952;2023-03-26T13:52:59;99069.75;;;13.85;100.00
4586;BME280;2305;50.118;8.952;2023-03-26T13:55:32;99063.25;;;13.88;100.00
4586;BME280;2305;50.118;8.952;2023-03-26T13:58:09;99056.66;;;13.84;100.00
4586;BME280;2305;50.118;8.952;2023-03-26T14:00:48;99057.19;;;13.57;100.00
4586;BME280;2305;50.118;8.952;2023-03-26T14:03:27;99050.44;;;13.47;100.00
4586;BME280;2305;50.118;8.952;2023-03-26T14:05:59;99049.84;;;13.37;100.00
4586;BME280;2305;50.118;8.952;2023-03-26T14:08:35;99059.50;;;13.30;100.00
4586;BME280;2305;50.118;8.952;2023-03-26T14:11:10;99063.47;;;13.26;100.00
4586;BME280;2305;50.118;8.952;2023-03-26T14:13:45;99053.41;;;13.21;100.00
4586;BME280;2305;50.118;8.952;2023-03-26T14:16:17;99057.03;;;13.20;100.00
4586;BME280;2305;50.118;8.952;2023-03-26T14:18:55;99062.38;;;13.12;100.00
4586;BME280;2305;50.118;8.952;2023-03-26T14:21:38;99063.03;;;13.14;100.00
4586;BME280;2305;50.118;8.952;2023-03-26T14:24:33;99072.59;;;13.15;100.00
4586;BME280;2305;50.118;8.952;2023-03-26T14:27:22;99085.78;;;13.23;100.00
4586;BME280;2305;50.118;8.952;2023-03-26T14:30:02;99059.53;;;13.22;100.00
4586;BME280;2305;50.118;8.952;2023-03-26T14:32:48;99053.97;;;13.39;100.00
4586;BME280;2305;50.118;8.952;2023-03-26T14:35:30;99053.47;;;13.66;100.00
4586;BME280;2305;50.118;8.952;2023-03-26T14:38:18;99045.59;;;13.58;100.00
4586;BME280;2305;50.118;8.952;2023-03-26T14:40:55;99036.63;;;13.59;100.00
4586;BME280;2305;50.118;8.952;2023-03-26T14:43:39;99037.38;;;13.98;100.00
4586;BME280;2305;50.118;8.952;2023-03-26T14:46:26;99033.94;;;14.12;100.00
4586;BME280;2305;50.118;8.952;2023-03-26T14:49:40;99036.28;;;14.07;100.00
4586;BME280;2305;50.118;8.952;2023-03-26T14:52:17;99026.75;;;14.20;100.00
4586;BME280;2305;50.118;8.952;2023-03-26T14:54:51;99022.59;;;14.40;100.00
4586;BME280;2305;50.118;8.952;2023-03-26T15:01:06;99002.69;;;15.73;100.00
4586;BME280;2305;50.118;8.952;2023-03-26T15:04:36;98995.41;;;16.03;100.00